createdAt,value
2022-11-06T00:01:16.093Z,42.10
2022-11-06T00:03:44.621Z,42.80
2022-11-06T00:06:33.582Z,42.00
2022-11-06T00:09:02.039Z,42.70
2022-11-06T00:11:30.166Z,42.00
2022-11-06T00:13:57.476Z,42.00
2022-11-06T00:16:24.812Z,41.90
2022-11-06T00:18:51.967Z,41.90
2022-11-06T00:21:24.780Z,41.80
2022-11-06T00:23:52.787Z,41.80
2022-11-06T00:26:26.064Z,41.80
2022-11-06T00:28:53.674Z,41.60
2022-11-06T00:31:22.800Z,41.50
2022-11-06T00:33:49.728Z,41.50
2022-11-06T00:36:18.621Z,41.50
2022-11-06T00:38:45.930Z,41.50
2022-11-06T00:41:15.141Z,41.40
2022-11-06T00:43:43.367Z,41.40
2022-11-06T00:46:12.317Z,41.50
2022-11-06T00:48:40.274Z,41.60
2022-11-06T00:51:14.109Z,41.70
2022-11-06T00:53:41.765Z,41.80
2022-11-06T00:56:14.522Z,41.90
2022-11-06T00:58:41.341Z,42.60
2022-11-06T01:01:34.444Z,42.00
2022-11-06T01:04:06.375Z,42.00
2022-11-06T01:06:36.291Z,42.00
2022-11-06T01:09:04.438Z,42.00
2022-11-06T01:11:59.477Z,42.00
2022-11-06T01:14:24.538Z,42.00
2022-11-06T01:16:51.753Z,42.00
2022-11-06T01:19:20.382Z,42.00
2022-11-06T01:21:49.832Z,42.00
2022-11-06T01:24:25.569Z,42.00
2022-11-06T01:27:24.215Z,42.00
2022-11-06T01:29:39.735Z,42.10
2022-11-06T01:32:06.933Z,42.10
2022-11-06T01:34:34.086Z,42.10
2022-11-06T01:37:00.876Z,42.10
2022-11-06T01:39:27.713Z,42.10
2022-11-06T01:41:55.219Z,42.10
2022-11-06T01:44:43.163Z,42.10
2022-11-06T01:47:25.941Z,42.10
2022-11-06T01:49:57.237Z,42.10
2022-11-06T01:52:25.585Z,42.20
2022-11-06T01:54:55.891Z,42.20
2022-11-06T01:57:22.945Z,42.30
2022-11-06T01:59:51.590Z,43.00
2022-11-06T02:02:19.847Z,42.30
2022-11-06T02:04:49.254Z,42.40
2022-11-06T02:07:18.596Z,42.50
2022-11-06T02:09:46.678Z,42.50
2022-11-06T02:12:49.976Z,42.60
2022-11-06T02:15:25.844Z,42.60
2022-11-06T02:18:21.807Z,42.60
2022-11-06T02:21:26.155Z,42.70
2022-11-06T02:24:01.756Z,42.70
2022-11-06T02:26:47.706Z,42.60
2022-11-06T02:29:22.689Z,42.70
2022-11-06T02:31:54.720Z,42.60
2022-11-06T02:34:25.298Z,42.70
2022-11-06T02:37:00.277Z,42.70
2022-11-06T02:39:30.705Z,42.70
2022-11-06T02:41:59.540Z,42.70
2022-11-06T02:44:29.423Z,42.70
2022-11-06T02:47:01.837Z,42.70
2022-11-06T02:49:35.446Z,42.70
2022-11-06T02:52:10.097Z,42.70
2022-11-06T02:54:40.925Z,43.50
2022-11-06T02:57:15.479Z,42.60
2022-11-06T02:59:50.284Z,42.60
2022-11-06T03:02:33.263Z,42.50
2022-11-06T03:05:27.533Z,42.50
2022-11-06T03:08:05.124Z,42.50
2022-11-06T03:10:39.154Z,42.40
2022-11-06T03:13:36.383Z,42.40
2022-11-06T03:16:09.491Z,42.40
2022-11-06T03:18:48.731Z,42.30
2022-11-06T03:21:27.029Z,42.30
2022-11-06T03:24:10.677Z,42.20
2022-11-06T03:26:42.042Z,42.10
2022-11-06T03:29:26.255Z,42.10
2022-11-06T03:32:05.080Z,41.90
2022-11-06T03:34:42.662Z,41.80
2022-11-06T03:37:16.947Z,41.80
2022-11-06T03:39:50.621Z,41.70
2022-11-06T03:42:23.168Z,41.60
2022-11-06T03:44:56.125Z,41.50
2022-11-06T03:47:37.429Z,41.50
2022-11-06T03:50:16.545Z,41.50
2022-11-06T03:52:53.266Z,41.60
2022-11-06T03:55:28.372Z,41.60
2022-11-06T03:58:11.254Z,41.60
2022-11-06T04:00:41.763Z,41.60
2022-11-06T04:03:19.054Z,41.70
2022-11-06T04:05:54.634Z,41.60
2022-11-06T04:08:41.711Z,41.70
2022-11-06T04:11:31.541Z,41.60
2022-11-06T04:14:02.827Z,41.60
2022-11-06T04:16:43.142Z,41.50
2022-11-06T04:19:17.107Z,41.40
2022-11-06T04:22:06.954Z,41.40
2022-11-06T04:25:30.373Z,41.30
2022-11-06T04:28:19.929Z,41.20
2022-11-06T04:31:10.109Z,41.10
2022-11-06T04:33:57.612Z,41.10
2022-11-06T04:36:55.722Z,41.10
2022-11-06T04:39:29.600Z,41.10
2022-11-06T04:42:22.189Z,41.10
2022-11-06T04:44:53.070Z,41.10
2022-11-06T04:47:22.635Z,40.90
2022-11-06T04:49:52.698Z,40.80
2022-11-06T04:52:24.100Z,40.70
2022-11-06T04:54:52.619Z,40.60
2022-11-06T04:57:19.362Z,40.40
2022-11-06T04:59:46.110Z,40.30
2022-11-06T05:02:12.935Z,40.20
2022-11-06T05:04:39.786Z,40.00
2022-11-06T05:07:06.643Z,39.80
2022-11-06T05:09:33.523Z,39.60
2022-11-06T05:12:00.334Z,39.50
2022-11-06T05:14:27.128Z,39.40
2022-11-06T05:16:53.880Z,39.20
2022-11-06T05:19:20.712Z,39.20
2022-11-06T05:22:05.784Z,39.00
2022-11-06T05:24:32.566Z,38.90
2022-11-06T05:26:59.899Z,39.00
2022-11-06T05:29:27.154Z,38.90
2022-11-06T05:31:54.046Z,39.00
2022-11-06T05:34:21.360Z,38.90
2022-11-06T05:36:48.097Z,39.00
2022-11-06T05:39:15.025Z,39.00
2022-11-06T05:41:41.799Z,39.10
2022-11-06T05:44:08.645Z,39.00
2022-11-06T05:46:48.344Z,38.90
2022-11-06T05:49:15.897Z,38.70
2022-11-06T05:51:42.779Z,38.70
2022-11-06T05:54:09.540Z,38.60
2022-11-06T05:56:36.373Z,38.60
2022-11-06T05:59:03.348Z,38.40
2022-11-06T06:01:30.513Z,38.30
2022-11-06T06:03:57.549Z,38.20
2022-11-06T06:06:24.677Z,38.20
2022-11-06T06:08:51.465Z,38.20
2022-11-06T06:11:18.313Z,38.30
2022-11-06T06:13:45.146Z,38.30
2022-11-06T06:16:11.937Z,38.50
2022-11-06T06:18:38.705Z,38.60
2022-11-06T06:21:05.683Z,38.70
2022-11-06T06:23:32.476Z,38.80
2022-11-06T06:25:59.267Z,38.80
2022-11-06T06:28:26.046Z,38.80
2022-11-06T06:30:57.163Z,38.80
2022-11-06T06:33:26.985Z,38.80
2022-11-06T06:35:53.780Z,38.80
2022-11-06T06:38:20.670Z,38.80
2022-11-06T06:40:47.505Z,38.70
2022-11-06T06:43:14.378Z,38.70
2022-11-06T06:45:41.133Z,38.80
2022-11-06T06:48:08.154Z,38.70
2022-11-06T06:50:35.006Z,38.80
2022-11-06T06:53:02.004Z,38.80
2022-11-06T06:55:29.453Z,38.80
2022-11-06T06:57:57.878Z,38.70
2022-11-06T07:00:24.789Z,38.90
2022-11-06T07:02:52.280Z,38.90
2022-11-06T07:05:19.436Z,39.10
2022-11-06T07:07:46.691Z,39.10
2022-11-06T07:10:13.475Z,39.30
2022-11-06T07:12:40.286Z,39.20
2022-11-06T07:15:07.868Z,39.20
2022-11-06T07:17:34.630Z,39.20
2022-11-06T07:20:01.435Z,39.20
2022-11-06T07:22:35.448Z,39.30
2022-11-06T07:25:04.385Z,39.40
2022-11-06T07:27:31.279Z,39.50
2022-11-06T07:30:00.330Z,39.60
2022-11-06T07:32:27.416Z,39.50
2022-11-06T07:34:54.191Z,39.60
2022-11-06T07:37:20.945Z,39.70
2022-11-06T07:39:47.774Z,39.80
2022-11-06T07:42:14.550Z,39.90
2022-11-06T07:44:41.306Z,39.90
2022-11-06T07:47:08.064Z,39.90
2022-11-06T07:49:34.848Z,39.90
2022-11-06T07:52:01.668Z,40.00
2022-11-06T07:54:28.710Z,40.00
2022-11-06T07:56:55.468Z,40.10
2022-11-06T07:59:22.260Z,40.10
2022-11-06T08:01:49.133Z,40.20
2022-11-06T08:04:15.945Z,40.20
2022-11-06T08:06:42.654Z,40.20
2022-11-06T08:09:10.081Z,40.40
2022-11-06T08:11:36.860Z,40.40
2022-11-06T08:14:03.778Z,40.50
2022-11-06T08:16:31.328Z,40.50
2022-11-06T08:18:58.160Z,40.60
2022-11-06T08:21:25.017Z,40.60
2022-11-06T08:23:51.741Z,40.60
2022-11-06T08:26:18.627Z,40.70
2022-11-06T08:28:47.367Z,40.70
2022-11-06T08:31:14.273Z,40.70
2022-11-06T08:33:41.532Z,40.70
2022-11-06T08:36:09.873Z,40.80
2022-11-06T08:38:36.829Z,40.90
2022-11-06T08:41:08.440Z,41.00
2022-11-06T08:43:36.001Z,41.00
2022-11-06T08:46:03.448Z,41.10
2022-11-06T08:48:32.032Z,41.20
2022-11-06T08:50:59.097Z,41.30
2022-11-06T08:53:26.051Z,41.40
2022-11-06T08:55:53.085Z,41.40
2022-11-06T08:58:19.885Z,41.50
2022-11-06T09:00:46.881Z,41.60
2022-11-06T09:03:16.353Z,41.60
2022-11-06T09:05:44.627Z,41.70
2022-11-06T09:08:12.677Z,41.80
2022-11-06T09:10:41.902Z,41.80
2022-11-06T09:13:09.767Z,41.80
2022-11-06T09:15:36.911Z,41.90
2022-11-06T09:18:04.066Z,42.60
2022-11-06T09:20:31.212Z,43.00
2022-11-06T09:23:03.421Z,43.00
2022-11-06T09:25:31.045Z,43.30
2022-11-06T09:27:59.708Z,43.20
2022-11-06T09:30:29.731Z,43.00
2022-11-06T09:33:01.313Z,42.90
2022-11-06T09:35:31.444Z,42.90
2022-11-06T09:38:03.403Z,42.70
2022-11-06T09:40:46.696Z,42.50
2022-11-06T09:44:02.856Z,42.40
2022-11-06T09:46:20.877Z,42.10
2022-11-06T09:48:55.404Z,41.90
2022-11-06T09:51:40.264Z,42.10
2022-11-06T09:54:25.289Z,41.60
2022-11-06T09:56:58.290Z,41.50
2022-11-06T09:59:26.150Z,41.50
2022-11-06T10:01:56.332Z,41.50
2022-11-06T10:05:04.709Z,41.40
2022-11-06T10:07:35.031Z,41.30
2022-11-06T10:10:05.133Z,41.20
2022-11-06T10:12:48.560Z,41.00
2022-11-06T10:15:26.922Z,40.90
2022-11-06T10:18:14.842Z,40.80
2022-11-06T10:20:51.525Z,40.70
2022-11-06T10:23:21.063Z,40.60
2022-11-06T10:26:10.115Z,40.50
2022-11-06T10:29:00.793Z,40.50
2022-11-06T10:31:49.478Z,40.50
2022-11-06T10:34:30.736Z,40.40
2022-11-06T10:37:04.122Z,40.40
2022-11-06T10:39:36.505Z,40.30
2022-11-06T10:42:21.960Z,40.30
2022-11-06T10:44:56.717Z,40.30
2022-11-06T10:47:30.097Z,40.30
2022-11-06T10:50:00.501Z,40.30
2022-11-06T10:52:30.489Z,40.20
2022-11-06T10:55:35.084Z,40.10
2022-11-06T10:58:03.377Z,39.90
2022-11-06T11:00:31.938Z,39.70
2022-11-06T11:03:04.869Z,39.70
2022-11-06T11:05:42.966Z,39.60
2022-11-06T11:08:28.467Z,39.50
2022-11-06T11:11:05.209Z,39.40
2022-11-06T11:13:33.182Z,39.40
2022-11-06T11:16:01.859Z,39.30
2022-11-06T11:18:31.685Z,39.20
2022-11-06T11:21:25.787Z,39.10
2022-11-06T11:24:06.285Z,39.00
2022-11-06T11:26:40.124Z,39.00
2022-11-06T11:29:24.915Z,39.00
2022-11-06T11:31:55.703Z,38.80
2022-11-06T11:34:28.228Z,38.70
2022-11-06T11:36:59.935Z,38.80
2022-11-06T11:39:41.834Z,38.70
2022-11-06T11:42:25.680Z,38.60
2022-11-06T11:45:18.668Z,38.60
2022-11-06T11:47:51.403Z,38.50
2022-11-06T11:50:33.676Z,38.50
2022-11-06T11:53:14.624Z,38.50
2022-11-06T11:55:46.103Z,38.50
2022-11-06T11:58:23.496Z,38.60
2022-11-06T12:01:03.155Z,39.40
2022-11-06T12:03:40.196Z,38.70
2022-11-06T12:06:14.050Z,38.70
2022-11-06T12:08:47.462Z,38.70
2022-11-06T12:11:20.537Z,38.70
2022-11-06T12:14:25.831Z,38.70
2022-11-06T12:17:04.457Z,38.60
2022-11-06T12:19:35.405Z,38.50
2022-11-06T12:22:10.655Z,38.40
2022-11-06T12:24:46.234Z,38.30
2022-11-06T12:27:33.299Z,38.30
2022-11-06T12:30:07.643Z,38.10
2022-11-06T12:32:52.687Z,38.10
2022-11-06T12:35:31.140Z,38.00
2022-11-06T12:38:05.767Z,38.00
2022-11-06T12:40:40.154Z,37.90
2022-11-06T12:43:37.109Z,37.90
2022-11-06T12:46:13.466Z,37.80
2022-11-06T12:48:55.091Z,37.80
2022-11-06T12:51:47.523Z,37.70
2022-11-06T12:54:58.919Z,37.80
2022-11-06T12:58:23.448Z,37.80
2022-11-06T13:01:25.753Z,37.90
2022-11-06T13:04:03.905Z,38.00
2022-11-06T13:06:51.764Z,38.00
2022-11-06T13:10:09.296Z,38.10
2022-11-06T13:12:47.037Z,38.30
2022-11-06T13:15:43.926Z,38.40
2022-11-06T13:18:13.870Z,38.50
2022-11-06T13:21:05.734Z,38.60
2022-11-06T13:23:48.059Z,38.80
2022-11-06T13:26:20.733Z,38.80
2022-11-06T13:28:56.060Z,38.90
2022-11-06T13:31:29.559Z,39.00
2022-11-06T13:34:00.047Z,39.00
2022-11-06T13:36:29.841Z,39.00
2022-11-06T13:39:03.428Z,39.00
2022-11-06T13:41:32.188Z,39.00
2022-11-06T13:44:02.319Z,38.90
2022-11-06T13:46:54.159Z,39.00
2022-11-06T13:49:21.087Z,38.90
2022-11-06T13:52:03.134Z,38.80
2022-11-06T13:54:32.672Z,38.80
2022-11-06T13:57:17.475Z,38.60
2022-11-06T13:59:59.773Z,38.60
2022-11-06T14:03:05.813Z,38.50
2022-11-06T14:05:41.314Z,38.40
2022-11-06T14:08:38.568Z,38.40
2022-11-06T14:11:17.630Z,38.40
2022-11-06T14:14:05.511Z,38.40
2022-11-06T14:16:34.631Z,38.60
2022-11-06T14:19:11.542Z,38.50
2022-11-06T14:21:49.133Z,38.60
2022-11-06T14:24:16.977Z,38.70
2022-11-06T14:26:49.510Z,38.70
2022-11-06T14:29:26.213Z,38.80
2022-11-06T14:32:13.075Z,38.90
2022-11-06T14:34:42.171Z,39.00
2022-11-06T14:37:17.872Z,39.20
2022-11-06T14:39:56.878Z,39.30
2022-11-06T14:42:26.981Z,39.40
2022-11-06T14:44:57.496Z,39.30
2022-11-06T14:47:35.749Z,39.40
2022-11-06T14:50:25.969Z,39.50
2022-11-06T14:52:58.584Z,39.50
2022-11-06T14:55:42.533Z,40.30
2022-11-06T14:58:12.718Z,39.70
2022-11-06T15:01:10.931Z,39.70
2022-11-06T15:03:49.967Z,39.80
2022-11-06T15:06:16.726Z,39.90
2022-11-06T15:08:50.285Z,39.90
2022-11-06T15:11:32.627Z,39.90
2022-11-06T15:14:03.420Z,39.80
2022-11-06T15:16:38.849Z,39.70
2022-11-06T15:19:24.793Z,39.60
2022-11-06T15:22:15.315Z,39.50
2022-11-06T15:25:17.459Z,39.30
2022-11-06T15:27:52.111Z,39.20
2022-11-06T15:30:20.297Z,39.10
2022-11-06T15:32:50.964Z,39.00
2022-11-06T15:35:25.777Z,38.90
2022-11-06T15:37:57.007Z,38.80
2022-11-06T15:40:38.324Z,38.70
2022-11-06T15:43:25.796Z,38.60
2022-11-06T15:46:16.664Z,38.50
2022-11-06T15:48:44.738Z,38.40
2022-11-06T15:51:29.095Z,38.30
2022-11-06T15:53:56.138Z,38.30
2022-11-06T15:56:42.374Z,38.20
2022-11-06T15:59:14.646Z,38.10
2022-11-06T16:01:48.686Z,38.00
2022-11-06T16:04:20.449Z,38.00
2022-11-06T16:06:47.980Z,37.90
2022-11-06T16:09:26.551Z,38.00
2022-11-06T16:11:54.222Z,37.90
2022-11-06T16:14:22.304Z,38.00
2022-11-06T16:16:51.924Z,37.90
2022-11-06T16:19:33.807Z,37.90
2022-11-06T16:22:07.509Z,37.90
2022-11-06T16:24:45.378Z,37.90
2022-11-06T16:27:13.980Z,37.90
2022-11-06T16:29:49.525Z,37.80
2022-11-06T16:32:21.474Z,37.70
2022-11-06T16:34:49.284Z,37.60
2022-11-06T16:37:15.989Z,37.50
2022-11-06T16:39:50.340Z,37.50
2022-11-06T16:42:23.260Z,37.30
2022-11-06T16:45:22.373Z,37.20
2022-11-06T16:48:07.526Z,36.90
2022-11-06T16:50:50.461Z,36.80
2022-11-06T16:53:22.039Z,36.60
2022-11-06T16:56:06.623Z,36.40
2022-11-06T16:58:50.228Z,36.30
2022-11-06T17:01:20.698Z,36.30
2022-11-06T17:03:55.214Z,36.40
2022-11-06T17:06:28.377Z,36.40
2022-11-06T17:09:07.823Z,36.60
2022-11-06T17:11:36.095Z,36.80
2022-11-06T17:14:17.274Z,36.90
2022-11-06T17:16:54.902Z,37.00
2022-11-06T17:19:22.326Z,37.00
2022-11-06T17:21:50.763Z,36.90
2022-11-06T17:24:35.809Z,36.90
2022-11-06T17:27:03.204Z,36.70
2022-11-06T17:29:30.467Z,36.60
2022-11-06T17:31:57.302Z,36.60
2022-11-06T17:34:24.116Z,36.60
2022-11-06T17:36:50.939Z,36.50
2022-11-06T17:39:17.991Z,36.40
2022-11-06T17:41:45.003Z,36.30
2022-11-06T17:44:13.075Z,36.30
2022-11-06T17:46:43.022Z,36.30
2022-11-06T17:49:16.832Z,36.30
2022-11-06T17:51:50.530Z,36.30
2022-11-06T17:54:20.223Z,36.40
2022-11-06T17:56:47.496Z,36.40
2022-11-06T17:59:14.389Z,36.50
2022-11-06T18:01:41.811Z,36.50
2022-11-06T18:04:08.996Z,36.40
2022-11-06T18:06:36.342Z,36.40
2022-11-06T18:09:06.079Z,36.50
2022-11-06T18:11:33.945Z,36.50
2022-11-06T18:14:01.224Z,36.50
2022-11-06T18:16:32.271Z,36.60
2022-11-06T18:19:01.560Z,36.80
2022-11-06T18:21:28.923Z,36.80
2022-11-06T18:23:55.758Z,36.90
2022-11-06T18:26:24.037Z,36.80
2022-11-06T18:28:52.067Z,36.80
2022-11-06T18:31:19.747Z,36.70
2022-11-06T18:33:46.782Z,36.60
2022-11-06T18:36:14.508Z,36.50
2022-11-06T18:38:42.404Z,36.50
2022-11-06T18:41:12.254Z,36.50
2022-11-06T18:43:40.203Z,36.50
2022-11-06T18:46:10.386Z,36.50
2022-11-06T18:48:38.092Z,36.50
2022-11-06T18:51:11.603Z,36.40
2022-11-06T18:53:39.573Z,36.40
2022-11-06T18:56:09.840Z,36.30
2022-11-06T18:58:37.078Z,36.20
2022-11-06T19:01:09.521Z,36.20
2022-11-06T19:03:36.718Z,36.10
2022-11-06T19:06:06.896Z,36.00
2022-11-06T19:08:37.488Z,36.10
2022-11-06T19:11:07.161Z,36.00
2022-11-06T19:13:40.974Z,35.90
2022-11-06T19:16:12.110Z,35.80
2022-11-06T19:18:41.449Z,35.80
2022-11-06T19:21:10.997Z,35.80
2022-11-06T19:23:39.862Z,35.80
2022-11-06T19:29:00.637Z,35.90
2022-11-06T19:31:29.838Z,35.80
2022-11-06T19:33:58.695Z,35.70
2022-11-06T19:36:26.129Z,35.70
2022-11-06T19:38:53.660Z,35.70
2022-11-06T19:41:20.925Z,35.70
2022-11-06T19:43:48.492Z,35.70
2022-11-06T19:46:23.417Z,36.40
2022-11-06T19:48:51.898Z,35.70
2022-11-06T19:51:19.475Z,35.70
2022-11-06T19:53:46.520Z,35.80
2022-11-06T19:56:16.514Z,35.90
2022-11-06T19:58:43.577Z,35.80
2022-11-06T20:01:13.316Z,35.90
2022-11-06T20:03:41.376Z,35.90
2022-11-06T20:06:09.534Z,35.90
2022-11-06T20:08:39.617Z,35.90
2022-11-06T20:11:14.207Z,36.00
2022-11-06T20:13:42.689Z,36.00
2022-11-06T20:16:20.294Z,36.10
2022-11-06T20:18:52.185Z,36.10
2022-11-06T20:21:19.351Z,36.10
2022-11-06T20:23:46.149Z,36.10
2022-11-06T20:26:13.468Z,36.20
2022-11-06T20:28:40.374Z,36.30
2022-11-06T20:31:09.361Z,36.30
2022-11-06T20:33:36.486Z,36.30
2022-11-06T20:36:17.049Z,36.30
2022-11-06T20:38:44.738Z,36.40
2022-11-06T20:41:14.611Z,36.40
2022-11-06T20:43:42.694Z,36.50
2022-11-06T20:46:11.692Z,36.50
2022-11-06T20:48:38.921Z,36.50
2022-11-06T20:51:08.628Z,36.50
2022-11-06T20:53:35.915Z,36.50
2022-11-06T20:56:06.381Z,36.70
2022-11-06T20:58:35.242Z,36.70
2022-11-06T21:01:07.832Z,36.70
2022-11-06T21:03:35.027Z,36.70
2022-11-06T21:06:02.075Z,36.70
2022-11-06T21:08:32.570Z,36.80
2022-11-06T21:11:06.216Z,36.80
2022-11-06T21:13:34.405Z,36.80
2022-11-06T21:16:08.358Z,36.80
2022-11-06T21:18:37.350Z,36.90
2022-11-06T21:21:06.574Z,37.00
2022-11-06T21:23:35.364Z,37.00
2022-11-06T21:26:08.580Z,37.10
2022-11-06T21:28:37.034Z,37.10
2022-11-06T21:31:04.920Z,37.20
2022-11-06T21:33:31.756Z,37.20
2022-11-06T21:36:07.446Z,37.30
2022-11-06T21:38:35.414Z,37.30
2022-11-06T21:41:09.386Z,37.40
2022-11-06T21:43:36.288Z,37.50
2022-11-06T21:46:08.399Z,37.50
2022-11-06T21:48:51.645Z,37.60
2022-11-06T21:51:22.478Z,37.70
2022-11-06T21:54:08.670Z,37.90
2022-11-06T21:56:36.094Z,37.90
2022-11-06T21:59:05.083Z,38.00
2022-11-06T22:01:32.756Z,38.10
2022-11-06T22:03:59.805Z,38.20
2022-11-06T22:06:28.724Z,38.20
2022-11-06T22:08:57.377Z,38.20
2022-11-06T22:11:36.309Z,38.20
2022-11-06T22:14:10.336Z,38.20
2022-11-06T22:16:40.044Z,38.30
2022-11-06T22:19:08.726Z,39.00
2022-11-06T22:21:37.083Z,38.30
2022-11-06T22:24:04.262Z,38.40
2022-11-06T22:26:32.429Z,38.40
2022-11-06T22:29:01.645Z,38.40
2022-11-06T22:31:29.841Z,38.40
2022-11-06T22:33:57.641Z,38.50
2022-11-06T22:36:26.426Z,38.50
2022-11-06T22:38:53.523Z,38.50
2022-11-06T22:41:23.492Z,38.60
2022-11-06T22:43:50.739Z,38.70
2022-11-06T22:46:23.400Z,38.70
2022-11-06T22:48:51.601Z,38.80
2022-11-06T22:51:22.051Z,38.80
2022-11-06T22:53:50.368Z,38.80
2022-11-06T22:56:18.194Z,38.90
2022-11-06T22:58:46.001Z,39.00
2022-11-06T23:01:13.448Z,39.20
2022-11-06T23:03:40.465Z,39.20
2022-11-06T23:06:09.281Z,39.40
2022-11-06T23:08:39.038Z,39.50
2022-11-06T23:11:11.902Z,39.50
2022-11-06T23:13:39.536Z,39.70
2022-11-06T23:16:08.712Z,39.70
2022-11-06T23:18:35.776Z,39.70
2022-11-06T23:21:02.832Z,39.80
2022-11-06T23:23:29.632Z,39.80
2022-11-06T23:25:56.349Z,39.80
2022-11-06T23:28:23.075Z,39.80
2022-11-06T23:30:49.808Z,39.80
2022-11-06T23:33:16.940Z,39.90
2022-11-06T23:35:43.876Z,39.90
2022-11-06T23:38:10.634Z,39.80
2022-11-06T23:40:37.448Z,39.80
2022-11-06T23:43:04.188Z,39.80
2022-11-06T23:45:49.167Z,39.80
2022-11-06T23:48:16.872Z,39.80
2022-11-06T23:50:47.091Z,39.70
2022-11-06T23:53:15.787Z,39.80
2022-11-06T23:55:43.229Z,39.80
2022-11-06T23:58:10.199Z,39.80
